createdAt,value
2022-08-07T00:01:43.713Z,63.28
2022-08-07T00:04:09.683Z,63.17
2022-08-07T00:06:51.834Z,63.05
2022-08-07T00:09:22.335Z,63.48
2022-08-07T00:11:55.635Z,64.07
2022-08-07T00:14:25.367Z,62.92
2022-08-07T00:16:57.719Z,62.25
2022-08-07T00:19:26.103Z,63.03
2022-08-07T00:22:02.098Z,63.39
2022-08-07T00:24:31.714Z,62.62
2022-08-07T00:27:07.296Z,62.48
2022-08-07T00:29:37.156Z,61.96
2022-08-07T00:32:05.748Z,61.95
2022-08-07T00:34:35.519Z,62.19
2022-08-07T00:37:05.089Z,61.95
2022-08-07T00:39:35.965Z,62.60
2022-08-07T00:42:11.801Z,62.72
2022-08-07T00:44:41.436Z,62.55
2022-08-07T00:47:15.638Z,61.67
2022-08-07T00:50:20.270Z,62.27
2022-08-07T00:52:29.882Z,62.71
2022-08-07T00:55:04.628Z,62.13
2022-08-07T00:57:37.238Z,62.90
2022-08-07T01:00:06.406Z,62.02
2022-08-07T01:02:33.580Z,61.09
2022-08-07T01:05:00.917Z,62.28
2022-08-07T01:07:31.016Z,62.17
2022-08-07T01:10:04.492Z,62.24
2022-08-07T01:12:34.680Z,61.98
2022-08-07T01:15:04.240Z,61.88
2022-08-07T01:17:32.710Z,62.55
2022-08-07T01:20:16.733Z,62.63
2022-08-07T01:22:57.800Z,62.10
2022-08-07T01:25:54.695Z,62.34
2022-08-07T01:28:19.459Z,61.34
2022-08-07T01:30:51.250Z,62.23
2022-08-07T01:33:20.672Z,61.65
2022-08-07T01:35:54.333Z,61.81
2022-08-07T01:38:29.062Z,61.45
2022-08-07T01:41:03.301Z,61.58
2022-08-07T01:43:38.388Z,61.67
2022-08-07T01:46:08.337Z,61.59
2022-08-07T01:48:47.618Z,61.18
2022-08-07T01:52:01.134Z,60.74
2022-08-07T01:54:32.944Z,61.72
2022-08-07T01:58:01.603Z,61.78
2022-08-07T02:00:13.179Z,61.42
2022-08-07T02:03:18.434Z,62.31
2022-08-07T02:05:48.451Z,62.26
2022-08-07T02:08:24.885Z,62.19
2022-08-07T02:10:55.085Z,61.05
2022-08-07T02:13:56.786Z,61.01
2022-08-07T02:16:19.743Z,60.71
2022-08-07T02:18:51.181Z,60.64
2022-08-07T02:21:19.910Z,60.51
2022-08-07T02:23:49.424Z,60.58
2022-08-07T02:26:32.424Z,60.95
2022-08-07T02:29:07.301Z,60.55
2022-08-07T02:31:42.349Z,60.23
2022-08-07T02:34:11.104Z,60.59
2022-08-07T02:36:46.212Z,60.53
2022-08-07T02:39:43.132Z,60.74
2022-08-07T02:42:10.201Z,59.53
2022-08-07T02:44:47.938Z,60.17
2022-08-07T02:47:19.939Z,60.12
2022-08-07T02:49:58.965Z,60.02
2022-08-07T02:52:37.524Z,60.29
2022-08-07T02:55:15.345Z,60.51
2022-08-07T02:57:59.891Z,59.72
2022-08-07T03:00:30.549Z,60.31
2022-08-07T03:02:59.482Z,60.84
2022-08-07T03:05:35.652Z,60.65
2022-08-07T03:08:09.514Z,59.67
2022-08-07T03:10:46.878Z,60.12
2022-08-07T03:13:19.752Z,60.00
2022-08-07T03:15:56.793Z,60.44
2022-08-07T03:18:35.048Z,59.90
2022-08-07T03:21:08.419Z,60.18
2022-08-07T03:24:19.375Z,60.36
2022-08-07T03:26:28.596Z,59.94
2022-08-07T03:28:58.619Z,60.57
2022-08-07T03:31:43.424Z,61.64
2022-08-07T03:34:18.770Z,61.63
2022-08-07T03:36:53.258Z,61.62
2022-08-07T03:39:59.349Z,61.67
2022-08-07T03:42:12.209Z,60.40
2022-08-07T03:44:40.775Z,60.26
2022-08-07T03:47:11.094Z,60.20
2022-08-07T03:49:39.338Z,59.47
2022-08-07T03:52:22.819Z,59.95
2022-08-07T03:55:06.868Z,59.99
2022-08-07T03:58:35.293Z,59.98
2022-08-07T04:00:30.237Z,59.90
2022-08-07T04:02:59.670Z,60.12
2022-08-07T04:05:40.443Z,60.01
2022-08-07T04:08:18.494Z,59.88
2022-08-07T04:10:54.228Z,60.51
2022-08-07T04:14:10.528Z,60.39
2022-08-07T04:16:30.788Z,60.41
2022-08-07T04:19:04.153Z,60.47
2022-08-07T04:21:48.081Z,60.01
2022-08-07T04:24:33.932Z,60.63
2022-08-07T04:27:05.136Z,60.56
2022-08-07T04:29:40.551Z,60.26
2022-08-07T04:32:34.041Z,60.76
2022-08-07T04:35:05.524Z,60.44
2022-08-07T04:37:52.929Z,60.43
2022-08-07T04:40:29.607Z,59.04
2022-08-07T04:43:01.846Z,59.73
2022-08-07T04:45:57.609Z,59.91
2022-08-07T04:48:45.373Z,60.19
2022-08-07T04:52:06.943Z,59.92
2022-08-07T04:54:59.630Z,60.59
2022-08-07T04:58:07.360Z,60.32
2022-08-07T05:01:03.860Z,59.98
2022-08-07T05:04:08.894Z,59.41
2022-08-07T05:07:28.945Z,59.40
2022-08-07T05:10:07.900Z,59.37
2022-08-07T05:12:52.897Z,59.10
2022-08-07T05:15:24.507Z,60.33
2022-08-07T05:18:08.996Z,59.22
2022-08-07T05:20:46.679Z,59.25
2022-08-07T05:23:29.849Z,59.70
2022-08-07T05:26:13.120Z,59.18
2022-08-07T05:28:51.576Z,59.84
2022-08-07T05:31:35.310Z,59.00
2022-08-07T05:34:10.756Z,59.34
2022-08-07T05:36:42.269Z,58.97
2022-08-07T05:40:05.547Z,59.23
2022-08-07T05:42:12.127Z,58.77
2022-08-07T05:44:52.778Z,58.45
2022-08-07T05:48:00.363Z,59.20
2022-08-07T05:50:17.735Z,59.06
2022-08-07T05:52:44.766Z,59.32
2022-08-07T05:55:14.211Z,59.51
2022-08-07T05:57:46.611Z,58.52
2022-08-07T06:00:17.817Z,59.40
2022-08-07T06:02:58.161Z,58.79
2022-08-07T06:05:28.811Z,59.40
2022-08-07T06:08:13.090Z,58.83
2022-08-07T06:10:44.676Z,58.04
2022-08-07T06:13:13.691Z,57.69
2022-08-07T06:15:44.463Z,59.41
2022-08-07T06:18:19.597Z,58.80
2022-08-07T06:20:51.140Z,58.71
2022-08-07T06:24:37.791Z,58.61
2022-08-07T06:26:27.380Z,57.26
2022-08-07T06:28:59.995Z,58.90
2022-08-07T06:31:46.937Z,57.21
2022-08-07T06:34:20.762Z,57.37
2022-08-07T06:36:51.928Z,58.13
2022-08-07T06:40:16.831Z,56.61
2022-08-07T06:42:34.975Z,56.32
2022-08-07T06:45:17.992Z,55.97
2022-08-07T06:47:58.848Z,56.08
2022-08-07T06:50:43.283Z,55.16
2022-08-07T06:53:49.122Z,56.33
2022-08-07T06:56:15.474Z,55.47
2022-08-07T07:00:14.719Z,55.56
2022-08-07T07:01:44.035Z,55.31
2022-08-07T07:04:28.318Z,55.38
2022-08-07T07:07:02.371Z,55.83
2022-08-07T07:09:46.092Z,54.64
2022-08-07T07:12:31.115Z,55.24
2022-08-07T07:15:26.436Z,54.15
2022-08-07T07:18:05.806Z,53.06
2022-08-07T07:20:37.315Z,53.70
2022-08-07T07:24:08.869Z,52.40
2022-08-07T07:26:33.869Z,51.81
2022-08-07T07:29:56.396Z,52.37
2022-08-07T07:31:55.385Z,51.72
2022-08-07T07:34:32.039Z,50.78
2022-08-07T07:37:14.389Z,50.03
2022-08-07T07:39:52.093Z,51.52
2022-08-07T07:42:32.393Z,52.14
2022-08-07T07:45:05.870Z,52.47
2022-08-07T07:47:42.811Z,52.10
2022-08-07T07:50:36.177Z,52.37
2022-08-07T07:53:20.421Z,52.12
2022-08-07T07:55:54.627Z,52.08
2022-08-07T07:58:29.373Z,52.42
2022-08-07T08:00:58.670Z,51.19
2022-08-07T08:04:06.496Z,51.44
2022-08-07T08:06:15.936Z,50.47
2022-08-07T08:08:43.841Z,50.34
2022-08-07T08:11:16.569Z,50.83
2022-08-07T08:13:54.504Z,50.74
2022-08-07T08:16:42.660Z,49.41
2022-08-07T08:20:16.267Z,50.48
2022-08-07T08:22:32.987Z,50.05
2022-08-07T08:25:41.844Z,50.19
2022-08-07T08:28:44.838Z,48.33
2022-08-07T08:31:30.073Z,47.94
2022-08-07T08:34:09.654Z,49.03
2022-08-07T08:36:41.140Z,48.86
2022-08-07T08:39:15.429Z,48.58
2022-08-07T08:42:14.814Z,48.47
2022-08-07T08:44:48.663Z,48.26
2022-08-07T08:50:45.414Z,48.57
2022-08-07T08:53:40.256Z,46.98
2022-08-07T08:56:14.306Z,47.35
2022-08-07T08:59:13.583Z,47.99
2022-08-07T09:01:53.527Z,47.06
2022-08-07T09:04:43.375Z,47.07
2022-08-07T09:07:26.333Z,47.77
2022-08-07T09:10:22.139Z,47.73
2022-08-07T09:12:56.081Z,47.34
2022-08-07T09:16:20.183Z,47.90
2022-08-07T09:18:53.327Z,48.03
2022-08-07T09:21:34.220Z,46.41
2022-08-07T09:24:31.901Z,46.12
2022-08-07T09:27:31.039Z,46.26
2022-08-07T09:30:10.482Z,45.82
2022-08-07T09:33:16.640Z,45.94
2022-08-07T09:36:43.087Z,45.87
2022-08-07T09:39:53.769Z,46.16
2022-08-07T09:42:51.373Z,46.35
2022-08-07T09:47:24.371Z,45.36
2022-08-07T09:48:50.274Z,45.93
2022-08-07T09:52:10.701Z,45.32
2022-08-07T09:54:40.436Z,45.85
2022-08-07T09:57:46.816Z,45.50
2022-08-07T10:00:24.313Z,45.11
2022-08-07T10:03:08.410Z,45.96
2022-08-07T10:06:19.316Z,44.96
2022-08-07T10:09:10.511Z,46.12
2022-08-07T10:12:15.423Z,46.41
2022-08-07T10:14:55.411Z,45.00
2022-08-07T10:18:03.238Z,45.68
2022-08-07T10:21:50.605Z,45.72
2022-08-07T10:24:38.213Z,44.86
2022-08-07T10:27:12.588Z,44.56
2022-08-07T10:30:12.376Z,44.26
2022-08-07T10:33:04.596Z,45.03
2022-08-07T10:35:56.771Z,44.52
2022-08-07T10:38:41.967Z,43.29
2022-08-07T10:41:47.391Z,43.48
2022-08-07T10:45:44.671Z,44.17
2022-08-07T10:48:20.789Z,44.53
2022-08-07T10:50:57.232Z,44.13
2022-08-07T10:53:48.912Z,44.11
2022-08-07T10:56:43.869Z,43.94
2022-08-07T10:59:24.882Z,43.75
2022-08-07T11:02:33.027Z,44.26
2022-08-07T11:05:48.688Z,43.24
2022-08-07T11:08:35.668Z,43.21
2022-08-07T11:11:27.638Z,42.96
2022-08-07T11:14:44.523Z,42.56
2022-08-07T11:17:13.085Z,42.71
2022-08-07T11:20:00.102Z,42.92
2022-08-07T11:22:47.185Z,42.94
2022-08-07T11:25:24.265Z,42.57
2022-08-07T11:28:16.723Z,42.85
2022-08-07T11:31:02.866Z,41.79
2022-08-07T11:34:10.217Z,41.07
2022-08-07T11:36:43.586Z,40.97
2022-08-07T11:39:59.535Z,41.39
2022-08-07T11:43:03.576Z,41.47
2022-08-07T11:45:54.976Z,40.68
2022-08-07T11:49:27.605Z,39.92
2022-08-07T11:52:12.053Z,40.68
2022-08-07T11:55:00.128Z,40.39
2022-08-07T11:58:00.226Z,40.25
2022-08-07T12:01:02.560Z,40.19
2022-08-07T12:03:50.861Z,40.27
2022-08-07T12:06:37.716Z,40.46
2022-08-07T12:09:16.159Z,40.30
2022-08-07T12:12:09.576Z,40.47
2022-08-07T12:14:51.427Z,41.64
2022-08-07T12:17:33.469Z,39.98
2022-08-07T12:20:46.255Z,40.36
2022-08-07T12:24:06.771Z,41.51
2022-08-07T12:26:49.117Z,41.27
2022-08-07T12:29:37.888Z,42.51
2022-08-07T12:32:23.815Z,41.40
2022-08-07T12:34:56.262Z,40.94
2022-08-07T12:37:28.517Z,40.65
2022-08-07T12:40:44.104Z,42.00
2022-08-07T12:43:09.826Z,41.31
2022-08-07T12:45:55.260Z,41.57
2022-08-07T12:48:52.125Z,41.67
2022-08-07T12:51:46.446Z,42.11
2022-08-07T12:54:38.190Z,42.32
2022-08-07T12:57:10.114Z,41.99
2022-08-07T12:59:54.501Z,42.86
2022-08-07T13:02:49.367Z,42.25
2022-08-07T13:06:04.686Z,42.44
2022-08-07T13:08:38.746Z,42.30
2022-08-07T13:11:08.583Z,42.32
2022-08-07T13:13:57.509Z,42.38
2022-08-07T13:16:36.951Z,42.29
2022-08-07T13:19:21.916Z,42.63
2022-08-07T13:22:19.656Z,43.26
2022-08-07T13:25:00.479Z,42.95
2022-08-07T13:28:11.236Z,42.18
2022-08-07T13:30:43.854Z,42.50
2022-08-07T13:34:32.973Z,41.85
2022-08-07T13:36:49.050Z,42.65
2022-08-07T13:39:28.410Z,42.38
2022-08-07T13:42:10.505Z,43.03
2022-08-07T13:44:39.065Z,42.73
2022-08-07T13:47:09.531Z,43.22
2022-08-07T13:50:33.595Z,42.79
2022-08-07T13:52:40.720Z,43.16
2022-08-07T13:55:25.447Z,43.23
2022-08-07T13:58:28.044Z,42.51
2022-08-07T14:01:09.123Z,43.44
2022-08-07T14:04:07.440Z,42.79
2022-08-07T14:06:38.553Z,42.33
2022-08-07T14:09:09.882Z,42.49
2022-08-07T14:12:00.936Z,42.95
2022-08-07T14:14:48.027Z,42.95
2022-08-07T14:17:51.567Z,43.41
2022-08-07T14:20:40.040Z,43.16
2022-08-07T14:23:08.585Z,43.09
2022-08-07T14:25:48.058Z,42.71
2022-08-07T14:28:18.321Z,44.92
2022-08-07T14:30:52.114Z,43.91
2022-08-07T14:33:22.342Z,43.36
2022-08-07T14:35:55.896Z,44.16
2022-08-07T14:38:30.822Z,45.60
2022-08-07T14:41:34.177Z,45.88
2022-08-07T14:44:16.546Z,48.14
2022-08-07T14:46:52.036Z,48.81
2022-08-07T14:49:58.298Z,47.30
2022-08-07T14:52:27.964Z,47.24
2022-08-07T14:54:59.382Z,48.26
2022-08-07T14:57:28.959Z,47.38
2022-08-07T15:00:20.708Z,47.35
2022-08-07T15:06:04.282Z,47.99
2022-08-07T15:08:47.530Z,48.67
2022-08-07T15:11:53.250Z,46.84
2022-08-07T15:14:25.489Z,46.00
2022-08-07T15:17:01.180Z,47.01
2022-08-07T15:20:30.798Z,47.05
2022-08-07T15:22:31.421Z,48.03
2022-08-07T15:25:17.410Z,49.18
2022-08-07T15:28:32.930Z,48.30
2022-08-07T15:33:33.978Z,47.61
2022-08-07T15:36:06.658Z,47.71
2022-08-07T15:42:43.667Z,49.03
2022-08-07T15:44:17.323Z,47.91
2022-08-07T15:46:52.645Z,48.49
2022-08-07T15:52:20.880Z,47.61
2022-08-07T15:54:49.692Z,48.43
2022-08-07T15:57:39.922Z,48.41
2022-08-07T16:00:31.733Z,49.43
2022-08-07T16:03:02.953Z,48.56
2022-08-07T16:05:31.586Z,48.92
2022-08-07T16:08:31.521Z,48.67
2022-08-07T16:11:27.049Z,49.58
2022-08-07T16:14:00.431Z,49.03
2022-08-07T16:16:47.869Z,49.72
2022-08-07T16:19:58.858Z,48.58
2022-08-07T16:22:54.463Z,49.73
2022-08-07T16:25:54.099Z,50.77
2022-08-07T16:29:18.307Z,49.74
2022-08-07T16:31:57.870Z,49.57
2022-08-07T16:34:48.406Z,49.46
2022-08-07T16:38:06.628Z,49.53
2022-08-07T16:40:28.853Z,48.90
2022-08-07T16:43:06.121Z,49.39
2022-08-07T16:46:47.379Z,49.56
2022-08-07T16:48:58.485Z,49.35
2022-08-07T16:52:11.233Z,48.48
2022-08-07T16:55:08.370Z,49.25
2022-08-07T16:58:01.843Z,48.63
2022-08-07T17:01:15.705Z,50.01
2022-08-07T17:04:00.531Z,50.54
2022-08-07T17:07:03.280Z,48.68
2022-08-07T17:10:06.283Z,47.99
2022-08-07T17:12:44.501Z,50.73
2022-08-07T17:15:15.726Z,49.36
2022-08-07T17:17:48.906Z,49.84
2022-08-07T17:20:41.763Z,50.78
2022-08-07T17:23:17.110Z,51.15
2022-08-07T17:25:57.098Z,50.21
2022-08-07T17:28:38.259Z,50.06
2022-08-07T17:31:22.644Z,50.89
2022-08-07T17:34:17.914Z,50.68
2022-08-07T17:36:57.936Z,50.56
2022-08-07T17:40:02.951Z,51.52
2022-08-07T17:43:01.057Z,49.86
2022-08-07T17:45:34.923Z,50.77
2022-08-07T17:48:08.642Z,51.15
2022-08-07T17:50:57.462Z,49.76
2022-08-07T17:54:00.967Z,51.66
2022-08-07T17:56:32.596Z,51.72
2022-08-07T17:59:09.696Z,51.95
2022-08-07T18:01:48.520Z,50.21
2022-08-07T18:04:35.149Z,51.42
2022-08-07T18:07:20.816Z,51.77
2022-08-07T18:10:06.127Z,51.52
2022-08-07T18:12:40.574Z,51.74
2022-08-07T18:15:53.470Z,52.97
2022-08-07T18:18:47.682Z,53.80
2022-08-07T18:21:37.133Z,52.88
2022-08-07T18:24:07.581Z,52.50
2022-08-07T18:27:17.513Z,52.82
2022-08-07T18:30:06.640Z,53.18
2022-08-07T18:33:21.830Z,52.34
2022-08-07T18:36:01.282Z,51.81
2022-08-07T18:40:08.133Z,53.07
2022-08-07T18:42:27.639Z,52.34
2022-08-07T18:45:44.168Z,52.50
2022-08-07T18:48:02.487Z,51.04
2022-08-07T18:50:45.486Z,51.16
2022-08-07T18:53:42.700Z,51.98
2022-08-07T18:56:30.682Z,52.92
2022-08-07T18:59:47.115Z,52.81
2022-08-07T19:02:42.571Z,52.21
2022-08-07T19:06:02.787Z,51.60
2022-08-07T19:08:21.665Z,52.36
2022-08-07T19:11:35.052Z,52.42
2022-08-07T19:14:08.070Z,52.33
2022-08-07T19:17:06.089Z,51.35
2022-08-07T19:20:29.229Z,53.13
2022-08-07T19:23:17.794Z,53.02
2022-08-07T19:26:23.506Z,51.63
2022-08-07T19:30:54.612Z,51.41
2022-08-07T19:31:57.741Z,53.11
2022-08-07T19:34:32.433Z,53.49
2022-08-07T19:37:09.927Z,53.77
2022-08-07T19:39:57.655Z,52.86
2022-08-07T19:42:30.764Z,53.17
2022-08-07T19:45:09.516Z,52.64
2022-08-07T19:47:42.155Z,52.56
2022-08-07T19:50:43.663Z,53.18
2022-08-07T19:52:58.727Z,53.43
2022-08-07T19:55:46.791Z,52.70
2022-08-07T19:58:16.302Z,53.70
2022-08-07T20:00:54.022Z,53.03
2022-08-07T20:03:34.786Z,52.60
2022-08-07T20:06:06.342Z,52.59
2022-08-07T20:08:50.712Z,53.21
2022-08-07T20:11:34.058Z,52.70
2022-08-07T20:14:13.735Z,52.65
2022-08-07T20:16:54.422Z,52.66
2022-08-07T20:19:28.723Z,53.30
2022-08-07T20:22:15.777Z,52.84
2022-08-07T20:25:06.271Z,51.77
2022-08-07T20:27:47.576Z,52.86
2022-08-07T20:30:21.869Z,51.72
2022-08-07T20:32:54.924Z,52.78
2022-08-07T20:35:52.019Z,53.09
2022-08-07T20:38:24.682Z,51.44
2022-08-07T20:40:56.510Z,54.06
2022-08-07T20:43:29.581Z,53.21
2022-08-07T20:46:28.154Z,53.23
2022-08-07T20:49:54.419Z,53.99
2022-08-07T20:51:35.977Z,54.23
2022-08-07T20:54:15.177Z,54.16
2022-08-07T20:56:45.991Z,54.20
2022-08-07T21:00:04.634Z,53.65
2022-08-07T21:02:32.823Z,54.78
2022-08-07T21:05:10.439Z,52.74
2022-08-07T21:07:48.759Z,53.79
2022-08-07T21:10:25.130Z,52.95
2022-08-07T21:13:00.924Z,53.56
2022-08-07T21:15:58.579Z,53.38
2022-08-07T21:18:33.898Z,53.68
2022-08-07T21:21:02.292Z,53.85
2022-08-07T21:23:33.451Z,53.66
2022-08-07T21:26:30.746Z,54.30
2022-08-07T21:29:05.334Z,54.38
2022-08-07T21:32:42.754Z,53.31
2022-08-07T21:34:49.072Z,53.88
2022-08-07T21:37:25.883Z,53.46
2022-08-07T21:40:06.492Z,53.47
2022-08-07T21:42:48.878Z,53.23
2022-08-07T21:46:08.946Z,54.30
2022-08-07T21:48:28.628Z,54.84
2022-08-07T21:51:08.067Z,55.50
2022-08-07T21:53:52.801Z,56.02
2022-08-07T21:57:08.286Z,55.62
2022-08-07T22:00:09.780Z,55.37
2022-08-07T22:03:06.232Z,54.82
2022-08-07T22:06:03.419Z,55.36
2022-08-07T22:08:53.769Z,55.28
2022-08-07T22:11:22.289Z,55.32
2022-08-07T22:13:59.696Z,54.83
2022-08-07T22:17:05.841Z,53.97
2022-08-07T22:20:02.761Z,53.98
2022-08-07T22:22:36.714Z,54.49
2022-08-07T22:25:13.352Z,54.89
2022-08-07T22:28:29.493Z,55.18
2022-08-07T22:30:59.514Z,54.88
2022-08-07T22:33:56.437Z,55.13
2022-08-07T22:37:09.164Z,54.77
2022-08-07T22:40:13.965Z,54.57
2022-08-07T22:42:44.867Z,54.65
2022-08-07T22:46:04.026Z,54.73
2022-08-07T22:48:54.861Z,53.70
2022-08-07T22:51:37.645Z,54.61
2022-08-07T22:54:14.929Z,55.55
2022-08-07T22:57:03.197Z,55.57
2022-08-07T22:59:50.214Z,56.06
2022-08-07T23:02:41.688Z,56.17
2022-08-07T23:06:10.343Z,54.97
2022-08-07T23:08:51.516Z,54.91
2022-08-07T23:11:46.091Z,54.30
2022-08-07T23:14:28.152Z,54.67
2022-08-07T23:17:29.426Z,54.94
2022-08-07T23:20:40.255Z,55.69
2022-08-07T23:24:05.426Z,56.60
2022-08-07T23:26:40.277Z,57.64
2022-08-07T23:30:35.419Z,58.41
2022-08-07T23:34:20.774Z,58.50
2022-08-07T23:35:29.219Z,59.41
2022-08-07T23:38:19.235Z,59.78
2022-08-07T23:41:13.597Z,59.27
2022-08-07T23:44:00.947Z,59.40
2022-08-07T23:47:07.252Z,59.35
2022-08-07T23:49:53.880Z,60.25
2022-08-07T23:52:58.387Z,59.79
2022-08-07T23:55:52.301Z,59.44
2022-08-07T23:58:43.622Z,59.44
